Accueil
METAR-TAF:

METAR-TAF

Aéroports :

Aéroport international Juwata

Tarakan, Indonésie

latitude: 03-19-36N, longitude: 117-33-56E, altitude: 6 m

Observation

Le bulletin a été fait il y a 5 heures et 4 minutes, à 14:00 UTC
Vent 2 kt de est/nord-est
Température 26°C
Humidité 94%
Pression 1009 hPa
Visibilité: 8000 m
Nuages épars à une hauteur de 1500 ft

METAR: WAQQ 241400Z 06002KT 8000 SCT015 26/25 Q1009 NOSIG

Heure: 02:04 (19:04 UTC)

Prévision

Le bulletin a été fait il y a 8 heures et 4 minutes, à 11:00 UTC
Prévision valable du 24 à 12 UTC au 24 à 24 UTC
Vent 3 kt de nord/nord-ouest
Visibilité: 8000 m
Nuages épars à une hauteur de 1500 ft

TAF: WAQQ 241100Z 2412/2424 34003KT 8000 SCT015

Observations et prévisions météorologiques de plus de 4000 aéroports (messages METAR et TAF).

Les stations disponibles sont représentées par des disques jaunes et rouges sur la carte.

Passer la souris dessus pour voir le nom de la station.

Cliquer dessus pour voir les observations et prévisions météorologiques.

Pour changer de carte: cliquez sur les boutons verts avec une croix noire pour zoomer, sur le bouton vert avec un tiret pour effectuer un zoom arrière, ou sur les flèches vertes pour les cartes adjacentes.


METAR-TAF: